Terminal Aerodrome Forecast
Issued by NWS Twin Cities, MN

Home | Current Version | Previous Version | Graphics & Text | Print | Product List | Glossary On
Versions: 1 2 3 4 5 6 7 8 9 10 11 12 13 14 15 16
000
FTUS43 KMPX 231125
TAFSTC
TAF
KSTC 231125Z 2312/2412 04007KT P6SM OVC100
     FM231500 07007KT P6SM SCT050 BKN100
     FM232100 09010KT P6SM SCT100
     FM240100 08008KT P6SM SCT100 BKN200
     FM240900 11009KT P6SM BKN200 WS020/19040KT=

USA.gov is the U.S. government's official web portal to all federal, state and local government web resources and services.